Time;durP1;ratioP1;P1;durP2;ratioP2;P2;SDS_P1;SDS_P2;PMS_P1;PMS_P2;Temp;Humidity;BMP_temperature;BMP_pressure;BME280_temperature;BME280_humidity;BME280_pressure;Samples;Min_cycle;Max_cycle;Signal;HPM_P1;HPM_P2
2023/04/16 00:01:49;;;;;;;16.05;7.93;;;12.20;89.40;;;;;;7402727;19;20027;-74
2023/04/16 00:04:18;;;;;;;20.38;8.88;;;12.20;89.40;;;;;;7382269;19;20010;-75
2023/04/16 00:06:47;;;;;;;19.85;8.45;;;12.20;89.20;;;;;;7381827;19;20064;-76
2023/04/16 00:09:16;;;;;;;16.50;8.05;;;12.20;89.10;;;;;;7380990;19;20006;-75
2023/04/16 00:11:44;;;;;;;13.50;7.60;;;12.30;88.90;;;;;;7380273;19;20066;-75
2023/04/16 00:14:16;;;;;;;12.77;7.28;;;12.30;88.50;;;;;;7382115;19;20036;-76
2023/04/16 00:16:44;;;;;;;16.92;7.68;;;12.30;88.80;;;;;;7406375;19;20224;-75
2023/04/16 00:19:13;;;;;;;17.02;7.50;;;12.40;89.40;;;;;;7378903;19;19998;-74
2023/04/16 00:21:42;;;;;;;17.58;8.10;;;12.20;88.20;;;;;;7378102;19;20062;-73
2023/04/16 00:24:11;;;;;;;17.05;7.25;;;12.30;88.80;;;;;;7378188;19;20032;-73
2023/04/16 00:26:40;;;;;;;14.77;7.07;;;12.30;88.60;;;;;;7380049;19;20085;-75
2023/04/16 00:29:08;;;;;;;17.90;7.50;;;12.30;88.20;;;;;;7379950;19;20238;-75
2023/04/16 00:31:40;;;;;;;21.35;8.07;;;12.40;88.00;;;;;;7400804;19;20024;-74
2023/04/16 00:34:08;;;;;;;24.48;6.80;;;12.40;88.30;;;;;;7381802;19;20219;-74
2023/04/16 00:36:37;;;;;;;18.40;7.43;;;12.30;87.50;;;;;;7379048;19;20082;-74
2023/04/16 00:39:06;;;;;;;13.45;7.18;;;12.30;88.20;;;;;;7379987;19;20071;-75
2023/04/16 00:41:35;;;;;;;16.83;7.80;;;12.30;88.50;;;;;;7379844;19;20020;-74
2023/04/16 00:44:03;;;;;;;15.85;7.40;;;12.30;88.40;;;;;;7377633;19;20035;-75
2023/04/16 00:46:33;;;;;;;18.55;7.43;;;12.30;88.50;;;;;;7401312;19;20027;-74
2023/04/16 00:49:05;;;;;;;13.95;7.07;;;12.40;88.60;;;;;;7379701;19;20070;-74
2023/04/16 00:51:34;;;;;;;12.15;6.35;;;12.30;88.90;;;;;;7378390;19;20007;-74
2023/04/16 00:54:03;;;;;;;14.57;6.85;;;12.30;88.20;;;;;;7379267;19;20007;-74
2023/04/16 00:56:32;;;;;;;13.35;7.03;;;12.30;88.40;;;;;;7379732;19;20007;-76
2023/04/16 00:59:01;;;;;;;15.13;7.43;;;12.20;87.60;;;;;;7378269;19;20011;-75
2023/04/16 01:01:30;;;;;;;16.80;7.68;;;12.20;88.00;;;;;;7400952;19;20011;-75
2023/04/16 01:03:58;;;;;;;15.65;7.25;;;12.20;88.30;;;;;;7378398;19;20020;-76
2023/04/16 01:06:30;;;;;;;14.65;6.32;;;12.20;88.20;;;;;;7380533;19;20067;-75
2023/04/16 01:08:59;;;;;;;15.10;6.35;;;12.10;88.10;;;;;;7380908;19;20003;-75
2023/04/16 01:11:28;;;;;;;18.85;5.85;;;12.00;87.80;;;;;;7378693;19;20755;-75
2023/04/16 01:13:57;;;;;;;10.32;6.00;;;11.90;87.60;;;;;;7376737;19;20071;-74
2023/04/16 01:16:25;;;;;;;14.98;5.63;;;11.90;88.00;;;;;;7399980;19;20011;-75
2023/04/16 01:18:54;;;;;;;14.13;5.80;;;11.80;88.10;;;;;;7378139;19;20062;-75
2023/04/16 01:21:26;;;;;;;9.05;5.93;;;11.80;88.20;;;;;;7378186;19;20365;-73
2023/04/16 01:23:55;;;;;;;15.52;6.55;;;11.80;88.40;;;;;;7378463;19;20010;-74
2023/04/16 01:26:23;;;;;;;13.50;6.70;;;11.80;89.20;;;;;;7377599;19;20014;-75
2023/04/16 01:28:52;;;;;;;14.43;6.05;;;11.80;88.40;;;;;;7397946;19;20322;-75
2023/04/16 01:31:21;;;;;;;17.55;6.25;;;11.70;88.50;;;;;;7381400;19;20003;-76
2023/04/16 01:33:50;;;;;;;16.58;5.93;;;11.70;88.30;;;;;;7376933;19;20011;-77
2023/04/16 01:36:18;;;;;;;18.27;6.07;;;11.70;88.60;;;;;;7378535;19;20020;-74
2023/04/16 01:38:50;;;;;;;13.98;5.90;;;11.60;88.70;;;;;;7378806;19;20358;-75
2023/04/16 01:41:19;;;;;;;10.73;5.80;;;11.60;88.60;;;;;;7380663;19;20094;-74
2023/04/16 01:43:47;;;;;;;12.20;5.78;;;11.60;88.40;;;;;;7398582;19;20014;-74
2023/04/16 01:46:20;;;;;;;11.57;6.05;;;11.60;88.40;;;;;;7377318;19;20020;-74
2023/04/16 01:48:49;;;;;;;15.02;6.20;;;11.50;89.60;;;;;;7376812;19;20054;-74
2023/04/16 01:51:17;;;;;;;15.07;5.70;;;11.50;88.40;;;;;;7376992;19;20011;-74
2023/04/16 01:53:46;;;;;;;15.40;5.30;;;11.50;88.40;;;;;;7376716;19;20414;-74
2023/04/16 01:56:17;;;;;;;11.40;4.93;;;11.40;88.40;;;;;;7377907;19;20005;-72
2023/04/16 01:58:46;;;;;;;10.32;5.18;;;11.40;88.70;;;;;;7404074;19;20046;-73
2023/04/16 02:01:15;;;;;;;16.77;6.07;;;11.40;88.60;;;;;;7377319;19;20007;-73
2023/04/16 02:03:44;;;;;;;13.93;5.72;;;11.30;88.40;;;;;;7377998;19;20007;-74
2023/04/16 02:06:13;;;;;;;11.27;6.20;;;11.40;88.70;;;;;;7377007;19;20003;-74
2023/04/16 02:08:42;;;;;;;15.80;6.30;;;11.30;89.40;;;;;;7379580;19;20007;-75
2023/04/16 02:11:11;;;;;;;19.65;6.35;;;11.30;88.70;;;;;;7377298;19;20006;-75
2023/04/16 02:13:42;;;;;;;12.77;6.68;;;11.30;88.60;;;;;;7398970;19;20067;-74
2023/04/16 02:16:11;;;;;;;14.45;6.40;;;11.30;88.80;;;;;;7377752;19;20007;-73
2023/04/16 02:18:39;;;;;;;15.52;6.10;;;11.20;88.60;;;;;;7379380;19;20030;-76
2023/04/16 02:21:08;;;;;;;11.70;5.35;;;11.20;89.00;;;;;;7379155;19;20068;-73
2023/04/16 02:23:39;;;;;;;21.33;5.57;;;11.30;89.00;;;;;;7376939;19;20444;-74
2023/04/16 02:26:08;;;;;;;15.32;5.93;;;11.30;89.10;;;;;;7378673;19;20014;-74
2023/04/16 02:28:37;;;;;;;11.63;5.28;;;11.30;88.90;;;;;;7398709;19;20260;-77
2023/04/16 02:31:09;;;;;;;14.02;5.47;;;11.30;88.60;;;;;;7378747;19;20255;-77
2023/04/16 02:33:40;;;;;;;10.32;5.70;;;11.30;88.50;;;;;;7377167;19;20159;-76
2023/04/16 02:36:10;;;;;;;15.73;6.82;;;11.30;88.40;;;;;;7379493;19;20019;-74
2023/04/16 02:38:51;;;;;;;11.55;6.30;;;11.30;88.10;;;;;;7383141;19;20020;-77
2023/04/16 02:41:20;;;;;;;;;;;11.20;88.40;;;;;;7382603;19;20074;-74
2023/04/16 02:43:49;;;;;;;14.75;5.97;;;11.20;88.80;;;;;;7402241;19;19931;-74
2023/04/16 02:46:20;;;;;;;14.07;5.85;;;11.10;89.20;;;;;;7379007;19;20355;-74
2023/04/16 02:48:48;;;;;;;;;;;11.20;89.20;;;;;;7385250;19;20026;-74
2023/04/16 02:51:17;;;;;;;17.38;5.88;;;11.10;89.50;;;;;;7381949;19;19963;-74
2023/04/16 02:53:46;;;;;;;16.05;5.75;;;11.10;90.20;;;;;;7383154;19;20070;-74
2023/04/16 02:56:15;;;;;;;17.48;6.50;;;11.10;89.90;;;;;;7383191;19;20019;-75
2023/04/16 02:58:43;;;;;;;13.55;6.32;;;11.10;89.30;;;;;;7404396;19;20077;-74
2023/04/16 03:01:12;;;;;;;11.13;5.57;;;10.90;89.40;;;;;;7382551;19;20049;-74
2023/04/16 03:03:43;;;;;;;19.85;5.55;;;10.90;89.90;;;;;;7382451;19;20066;-73
2023/04/16 03:06:12;;;;;;;13.45;5.90;;;10.90;90.00;;;;;;7383834;19;20006;-73
2023/04/16 03:08:41;;;;;;;16.13;5.65;;;10.80;90.10;;;;;;7385320;19;20393;-73
2023/04/16 03:11:09;;;;;;;14.25;5.65;;;10.80;89.90;;;;;;7382329;19;20013;-73
2023/04/16 03:13:38;;;;;;;9.35;5.25;;;10.80;89.50;;;;;;7403967;19;20016;-73
2023/04/16 03:16:08;;;;;;;11.40;5.32;;;10.80;89.70;;;;;;7383938;19;20003;-75
2023/04/16 03:18:36;;;;;;;12.65;4.93;;;10.80;89.00;;;;;;7387800;19;20010;-75
2023/04/16 03:21:08;;;;;;;9.88;5.15;;;10.80;88.60;;;;;;7385913;19;20405;-77
2023/04/16 03:23:37;;;;;;;15.27;5.43;;;10.80;88.50;;;;;;7390194;19;20010;-76
2023/04/16 03:26:06;;;;;;;10.93;5.57;;;10.70;88.30;;;;;;7385166;19;20364;-76
2023/04/16 03:28:34;;;;;;;11.95;5.53;;;10.70;88.50;;;;;;7405102;19;20031;-75
2023/04/16 03:31:03;;;;;;;11.18;6.20;;;10.70;88.40;;;;;;7381857;19;20154;-75
2023/04/16 03:33:32;;;;;;;15.65;6.22;;;10.70;88.30;;;;;;7381591;19;20086;-75
2023/04/16 03:36:01;;;;;;;13.80;6.38;;;10.70;88.20;;;;;;7383743;19;20247;-75
2023/04/16 03:38:32;;;;;;;12.38;6.45;;;10.70;88.50;;;;;;7382897;19;20059;-72
2023/04/16 03:41:01;;;;;;;10.75;5.68;;;10.60;88.80;;;;;;7387896;19;20014;-73
2023/04/16 03:43:29;;;;;;;13.18;6.25;;;10.70;89.50;;;;;;7408057;19;20014;-73
2023/04/16 03:45:58;;;;;;;19.55;6.32;;;10.60;89.20;;;;;;7380790;19;20086;-74
2023/04/16 03:48:27;;;;;;;14.38;5.90;;;10.70;89.40;;;;;;7380833;19;20007;-73
2023/04/16 03:50:55;;;;;;;12.93;5.90;;;10.70;89.50;;;;;;7381544;19;20369;-73
2023/04/16 03:53:24;;;;;;;13.32;5.85;;;10.70;88.80;;;;;;7380348;19;20019;-74
2023/04/16 03:55:55;;;;;;;16.98;5.63;;;10.70;88.60;;;;;;7403712;19;20007;-74
2023/04/16 03:58:24;;;;;;;9.85;5.20;;;10.70;88.60;;;;;;7380183;19;20367;-73
2023/04/16 04:00:55;;;;;;;11.18;5.95;;;10.60;88.70;;;;;;7380011;19;20011;-73
2023/04/16 04:03:24;;;;;;;13.75;5.38;;;10.60;88.40;;;;;;7380932;19;20271;-73
2023/04/16 04:05:53;;;;;;;13.00;5.00;;;10.60;88.20;;;;;;7381250;19;20013;-73
2023/04/16 04:08:22;;;;;;;9.50;5.13;;;10.60;88.20;;;;;;7381384;19;20023;-73
2023/04/16 04:10:51;;;;;;;10.88;5.13;;;10.60;88.30;;;;;;7402582;19;20010;-74
2023/04/16 04:13:22;;;;;;;11.02;5.88;;;10.60;88.20;;;;;;7379856;19;20007;-74
2023/04/16 04:15:51;;;;;;;14.55;5.53;;;10.60;88.00;;;;;;7380270;19;20006;-74
2023/04/16 04:18:19;;;;;;;9.90;5.63;;;10.60;88.90;;;;;;7380812;19;20078;-74
2023/04/16 04:20:48;;;;;;;12.13;5.35;;;10.60;88.10;;;;;;7379524;19;20246;-74
2023/04/16 04:23:17;;;;;;;11.60;5.22;;;10.50;88.20;;;;;;7378263;19;20268;-74
2023/04/16 04:25:46;;;;;;;11.85;5.43;;;10.50;88.20;;;;;;7399861;19;20050;-74
2023/04/16 04:28:15;;;;;;;10.98;6.00;;;10.50;88.00;;;;;;7379195;19;20070;-73
2023/04/16 04:30:46;;;;;;;11.70;5.72;;;10.40;87.90;;;;;;7381550;19;20305;-74
2023/04/16 04:33:17;;;;;;;13.30;5.72;;;10.40;88.30;;;;;;7378973;19;20369;-74
2023/04/16 04:35:46;;;;;;;12.82;5.13;;;10.40;88.60;;;;;;7379834;19;20062;-73
2023/04/16 04:38:18;;;;;;;14.20;5.30;;;10.40;88.50;;;;;;7379216;19;20461;-73
2023/04/16 04:40:47;;;;;;;9.40;4.38;;;10.30;88.20;;;;;;7400766;19;20369;-73
2023/04/16 04:43:16;;;;;;;9.35;4.82;;;10.30;88.70;;;;;;7378643;19;20028;-73
2023/04/16 04:45:48;;;;;;;11.50;5.13;;;10.30;88.50;;;;;;7378536;19;20010;-73
2023/04/16 04:48:16;;;;;;;14.27;4.85;;;10.20;89.00;;;;;;7379473;19;20274;-73
2023/04/16 04:50:47;;;;;;;9.95;5.32;;;10.20;89.30;;;;;;7379475;19;20006;-73
2023/04/16 04:53:15;;;;;;;11.38;4.95;;;10.20;89.30;;;;;;7378274;19;20432;-73
2023/04/16 04:55:44;;;;;;;8.60;4.75;;;10.20;89.40;;;;;;7400309;19;20018;-73
2023/04/16 04:58:13;;;;;;;26.35;5.57;;;10.20;89.20;;;;;;7379757;19;20010;-73
2023/04/16 05:00:41;;;;;;;19.13;5.38;;;10.20;88.80;;;;;;7380402;19;20054;-73
2023/04/16 05:03:13;;;;;;;9.65;5.18;;;10.20;88.80;;;;;;7380611;19;20006;-73
2023/04/16 05:05:42;;;;;;;16.02;6.85;;;10.20;88.90;;;;;;7382237;19;20010;-73
2023/04/16 05:08:11;;;;;;;14.80;6.07;;;10.20;88.60;;;;;;7378548;19;20017;-74
2023/04/16 05:10:40;;;;;;;11.07;5.60;;;10.20;88.90;;;;;;7398933;19;20010;-74
2023/04/16 05:13:09;;;;;;;14.57;5.78;;;10.20;89.20;;;;;;7377029;19;20020;-74
2023/04/16 05:15:37;;;;;;;14.57;6.28;;;10.20;89.00;;;;;;7381016;19;20007;-74
2023/04/16 05:18:06;;;;;;;10.90;5.75;;;10.30;89.20;;;;;;7378432;19;20059;-75
2023/04/16 05:20:38;;;;;;;10.05;5.10;;;10.20;89.30;;;;;;7378390;19;20737;-74
2023/04/16 05:23:07;;;;;;;13.45;5.05;;;10.20;89.10;;;;;;7377987;19;20235;-74
2023/04/16 05:25:36;;;;;;;17.10;5.95;;;10.20;88.70;;;;;;7399394;19;20019;-74
2023/04/16 05:28:04;;;;;;;10.50;5.30;;;10.30;89.50;;;;;;7377522;19;20024;-74
2023/04/16 05:30:33;;;;;;;13.48;5.88;;;10.30;88.80;;;;;;7377503;19;20389;-74
2023/04/16 05:33:02;;;;;;;9.13;5.70;;;10.30;88.80;;;;;;7378275;19;20003;-74
2023/04/16 05:35:31;;;;;;;12.80;4.78;;;10.30;89.10;;;;;;7378158;19;20007;-74
2023/04/16 05:38:03;;;;;;;13.57;6.22;;;10.30;88.60;;;;;;7377312;19;20007;-74
2023/04/16 05:40:32;;;;;;;16.48;6.15;;;10.30;88.70;;;;;;7399577;19;20007;-74
2023/04/16 05:43:00;;;;;;;12.27;5.88;;;10.30;88.80;;;;;;7377536;19;20074;-74
2023/04/16 05:45:30;;;;;;;11.57;5.88;;;10.40;88.80;;;;;;7377701;19;20014;-74
2023/04/16 05:47:58;;;;;;;13.65;6.57;;;10.40;89.10;;;;;;7378212;19;20013;-74
2023/04/16 05:50:27;;;;;;;12.65;6.30;;;10.40;89.10;;;;;;7376318;19;20282;-74
2023/04/16 05:52:56;;;;;;;13.13;6.28;;;10.50;89.20;;;;;;7376131;19;20007;-74
2023/04/16 05:55:27;;;;;;;14.73;6.53;;;10.50;89.50;;;;;;7400434;19;20007;-74
2023/04/16 05:57:56;;;;;;;15.60;6.78;;;10.50;89.40;;;;;;7377226;19;20027;-74
2023/04/16 06:00:26;;;;;;;11.95;6.57;;;10.60;89.80;;;;;;7377541;19;20010;-74
2023/04/16 06:02:54;;;;;;;18.92;6.78;;;10.60;90.10;;;;;;7377352;19;20027;-74
2023/04/16 06:05:23;;;;;;;13.73;7.18;;;10.60;90.00;;;;;;7377679;19;20020;-74
2023/04/16 06:07:52;;;;;;;20.85;8.00;;;10.70;90.10;;;;;;7398949;19;20010;-75
2023/04/16 06:10:20;;;;;;;13.80;7.65;;;10.70;90.20;;;;;;7376550;19;20062;-75
2023/04/16 06:12:52;;;;;;;19.65;7.50;;;10.80;90.20;;;;;;7378163;19;20015;-75
2023/04/16 06:15:21;;;;;;;18.63;8.02;;;10.90;90.30;;;;;;7377223;19;20027;-74
2023/04/16 06:17:49;;;;;;;18.23;8.13;;;10.90;90.40;;;;;;7376490;19;20011;-74
2023/04/16 06:20:19;;;;;;;25.38;10.18;;;11.00;90.80;;;;;;7378607;19;20028;-74
2023/04/16 06:22:48;;;;;;;19.38;9.43;;;11.10;90.40;;;;;;7406628;19;20038;-74
2023/04/16 06:25:17;;;;;;;23.05;9.55;;;11.10;90.40;;;;;;7383934;19;20020;-74
2023/04/16 06:27:45;;;;;;;23.92;10.52;;;11.10;90.50;;;;;;7383907;19;20007;-74
2023/04/16 06:30:18;;;;;;;27.77;11.10;;;11.20;90.60;;;;;;7384737;19;20027;-74
2023/04/16 06:32:47;;;;;;;24.50;11.70;;;11.30;90.50;;;;;;7383482;19;20014;-74
2023/04/16 06:35:19;;;;;;;28.73;12.60;;;11.30;90.50;;;;;;7384092;19;20379;-75
2023/04/16 06:37:47;;;;;;;29.48;11.95;;;11.40;90.50;;;;;;7406176;19;20372;-76
2023/04/16 06:40:16;;;;;;;26.45;12.20;;;11.50;90.60;;;;;;7383506;19;20058;-74
2023/04/16 06:42:45;;;;;;;28.95;13.48;;;11.60;90.70;;;;;;7385629;19;20070;-74
2023/04/16 06:45:17;;;;;;;37.33;14.70;;;11.50;90.60;;;;;;7383086;19;20071;-74
2023/04/16 06:47:46;;;;;;;33.25;15.10;;;11.40;90.50;;;;;;7385085;19;20007;-74
2023/04/16 06:50:15;;;;;;;28.70;13.73;;;11.40;90.70;;;;;;7382407;19;20022;-74
2023/04/16 06:52:44;;;;;;;37.78;14.55;;;11.50;90.70;;;;;;7402353;19;20033;-74
2023/04/16 06:55:13;;;;;;;38.67;14.60;;;11.60;90.60;;;;;;7385028;19;20071;-74
2023/04/16 06:57:42;;;;;;;41.22;15.57;;;11.60;90.40;;;;;;7382688;19;20078;-73
2023/04/16 07:00:11;;;;;;;40.40;14.50;;;11.60;90.50;;;;;;7383484;19;20006;-74
2023/04/16 07:02:43;;;;;;;32.10;15.73;;;11.60;90.50;;;;;;7383326;19;20007;-74
2023/04/16 07:05:11;;;;;;;50.45;16.10;;;11.70;90.70;;;;;;7381327;19;20010;-74
2023/04/16 07:07:40;;;;;;;1700.65;123.35;;;11.80;91.60;;;;;;7406086;19;20492;-73
2023/04/16 07:10:11;;;;;;;45.83;18.85;;;11.80;93.20;;;;;;7382195;19;20014;-73
2023/04/16 07:12:40;;;;;;;40.58;17.52;;;11.90;92.90;;;;;;7382414;19;20230;-73
2023/04/16 07:15:10;;;;;;;36.30;15.02;;;12.00;92.10;;;;;;7383107;19;20054;-74
2023/04/16 07:17:39;;;;;;;38.45;15.35;;;12.00;91.50;;;;;;7383492;19;20019;-74
2023/04/16 07:20:11;;;;;;;63.17;16.15;;;12.10;91.20;;;;;;7380727;19;20375;-73
2023/04/16 07:22:40;;;;;;;29.92;14.98;;;12.00;90.90;;;;;;7401580;19;20011;-75
2023/04/16 07:25:10;;;;;;;34.15;14.45;;;12.10;91.00;;;;;;7381547;19;20055;-74
2023/04/16 07:27:39;;;;;;;87.70;16.55;;;12.10;90.70;;;;;;7381334;19;20078;-74
2023/04/16 07:30:09;;;;;;;139.93;20.20;;;12.20;90.70;;;;;;7382360;19;20006;-74
2023/04/16 07:32:38;;;;;;;38.40;15.37;;;12.20;91.20;;;;;;7382204;19;20009;-74
2023/04/16 07:35:10;;;;;;;36.97;15.75;;;12.30;90.90;;;;;;7383218;19;20022;-74
2023/04/16 07:37:39;;;;;;;34.28;15.43;;;12.30;90.70;;;;;;7404655;19;20027;-74
2023/04/16 07:40:09;;;;;;;39.20;16.60;;;12.40;90.60;;;;;;7382061;19;20007;-73
2023/04/16 07:42:38;;;;;;;33.15;14.60;;;12.40;90.50;;;;;;7382013;19;20016;-74
2023/04/16 07:45:09;;;;;;;33.63;15.43;;;12.10;89.00;;;;;;7381999;19;20054;-73
2023/04/16 07:47:38;;;;;;;44.42;16.15;;;12.10;89.40;;;;;;7383299;19;20010;-74
2023/04/16 07:50:11;;;;;;;36.30;16.33;;;12.20;90.00;;;;;;7383924;19;20003;-73
2023/04/16 07:52:41;;;;;;;37.85;16.77;;;12.30;90.00;;;;;;7407111;19;20010;-74
2023/04/16 07:55:10;;;;;;;40.55;16.38;;;12.40;90.00;;;;;;7383694;19;20009;-74
2023/04/16 07:57:39;;;;;;;41.22;16.02;;;12.30;88.80;;;;;;7381076;19;20006;-73
2023/04/16 08:00:10;;;;;;;36.78;16.77;;;12.30;88.50;;;;;;7381150;19;20028;-74
2023/04/16 08:02:39;;;;;;;38.00;16.73;;;12.30;88.70;;;;;;7380979;19;20011;-74
2023/04/16 08:05:11;;;;;;;44.60;18.30;;;12.30;89.20;;;;;;7385074;19;20006;-74
2023/04/16 08:07:40;;;;;;;37.60;16.85;;;12.40;89.80;;;;;;7402052;19;20003;-73
2023/04/16 08:10:10;;;;;;;40.45;16.80;;;12.40;90.50;;;;;;7380340;19;20007;-74
2023/04/16 08:12:39;;;;;;;40.83;17.92;;;12.40;90.10;;;;;;7381196;19;20358;-73
2023/04/16 08:15:09;;;;;;;35.95;17.13;;;12.50;90.10;;;;;;7379716;19;20058;-73
2023/04/16 08:17:39;;;;;;;40.78;16.92;;;12.50;90.00;;;;;;7379717;19;20016;-74
2023/04/16 08:20:12;;;;;;;34.83;16.27;;;12.70;89.70;;;;;;7378880;19;20011;-73
2023/04/16 08:22:40;;;;;;;34.58;15.70;;;12.60;88.00;;;;;;7399851;19;20011;-74
2023/04/16 08:25:11;;;;;;;34.90;15.85;;;12.30;88.90;;;;;;7379541;19;20024;-74
2023/04/16 08:27:39;;;;;;;41.90;16.80;;;12.10;89.10;;;;;;7379667;19;20011;-74
2023/04/16 08:30:09;;;;;;;35.97;16.15;;;12.10;89.70;;;;;;7380183;19;20440;-74
2023/04/16 08:32:38;;;;;;;36.17;15.23;;;11.80;89.10;;;;;;7380784;19;20013;-75
2023/04/16 08:35:13;;;;;;;36.30;15.73;;;11.90;89.20;;;;;;7378608;19;20062;-74
2023/04/16 08:37:42;;;;;;;33.80;14.95;;;11.90;89.40;;;;;;7400839;19;20031;-74
2023/04/16 08:40:11;;;;;;;36.28;15.20;;;11.80;89.70;;;;;;7378886;19;20085;-76
2023/04/16 08:42:45;;;;;;;33.13;15.18;;;11.90;90.00;;;;;;7378889;19;20023;-74
2023/04/16 08:45:17;;;;;;;38.22;15.27;;;11.80;90.00;;;;;;7378824;19;20012;-74
2023/04/16 08:47:49;;;;;;;38.15;15.60;;;12.10;89.90;;;;;;7381190;19;20007;-75
2023/04/16 08:50:25;;;;;;;39.85;15.27;;;12.20;89.80;;;;;;7379947;19;20085;-74
2023/04/16 08:52:54;;;;;;;26.63;13.43;;;12.10;90.10;;;;;;7400495;19;20279;-73
2023/04/16 08:55:25;;;;;;;31.52;14.27;;;12.10;89.80;;;;;;7403697;19;20362;-72
2023/04/16 08:57:59;;;;;;;31.93;12.97;;;12.10;89.50;;;;;;7380429;19;20019;-75
2023/04/16 09:00:28;;;;;;;28.52;11.77;;;12.00;88.60;;;;;;7383033;19;19999;-75
2023/04/16 09:02:56;;;;;;;25.23;11.55;;;12.10;86.70;;;;;;7380416;19;20019;-74
2023/04/16 09:05:30;;;;;;;33.20;12.63;;;12.40;87.10;;;;;;7380059;19;20023;-74
2023/04/16 09:07:59;;;;;;;28.70;11.40;;;12.50;86.90;;;;;;7380911;19;20012;-73
2023/04/16 09:10:29;;;;;;;24.88;12.02;;;12.70;86.50;;;;;;7405641;19;20313;-77
2023/04/16 09:15:41;;;;;;;25.60;10.43;;;12.80;87.20;;;;;;7388593;19;20003;-76
2023/04/16 09:18:27;;;;;;;;;;;;;;;;;;;;;
2023/04/16 09:20:59;;;;;;;29.05;10.27;;;12.90;85.20;;;;;;7387521;19;20054;-77
2023/04/16 09:23:27;;;;;;;;;;;13.00;84.40;;;;;;7384274;19;20007;-76
2023/04/16 09:25:57;;;;;;;24.77;9.73;;;13.10;83.60;;;;;;7383913;19;19911;-77
2023/04/16 09:28:44;;;;;;;20.27;10.45;;;13.20;82.50;;;;;;7403242;19;20011;-78
2023/04/16 09:31:16;;;;;;;26.13;11.63;;;13.10;83.00;;;;;;7386001;19;19998;-77
2023/04/16 09:33:45;;;;;;;25.98;10.52;;;13.20;83.10;;;;;;7382315;19;20024;-76
2023/04/16 09:36:25;;;;;;;18.88;10.15;;;13.20;84.00;;;;;;7383503;19;20042;-78
2023/04/16 09:38:55;;;;;;;25.10;9.57;;;13.30;83.30;;;;;;7384790;19;20027;-76
2023/04/16 09:41:27;;;;;;;29.25;9.75;;;13.10;81.90;;;;;;7380105;19;20019;-76
2023/04/16 09:44:10;;;;;;;29.15;10.48;;;13.20;83.30;;;;;;7383967;19;20024;-81
2023/04/16 09:47:26;;;;;;;35.88;9.82;;;13.00;81.50;;;;;;7406178;19;20003;-83
2023/04/16 09:49:54;;;;;;;25.38;9.88;;;12.90;80.80;;;;;;7281755;19;2004673;-79
2023/04/16 09:52:32;;;;;;;21.58;9.75;;;12.90;81.60;;;;;;7402724;19;20420;-81
2023/04/16 09:55:02;;;;;;;28.85;10.07;;;12.80;81.60;;;;;;7381230;19;20072;-79
2023/04/16 09:57:33;;;;;;;25.38;10.02;;;12.70;82.20;;;;;;7390324;19;20015;-79
2023/04/16 10:00:11;;;;;;;23.25;10.98;;;12.70;82.50;;;;;;7391897;19;20013;-80
2023/04/16 10:02:57;;;;;;;;;;;;;;;;;;;;;
2023/04/16 10:05:41;;;;;;;29.08;11.73;;;13.00;83.40;;;;;;7399024;19;20017;-79
2023/04/16 10:08:22;;;;;;;29.02;12.73;;;13.20;83.60;;;;;;7394153;19;20027;-79
2023/04/16 10:10:54;;;;;;;27.98;10.70;;;13.30;83.40;;;;;;7415479;19;20054;-80
2023/04/16 10:13:37;;;;;;;19.00;9.40;;;13.50;82.90;;;;;;7392440;19;20016;-80
2023/04/16 10:16:12;;;;;;;17.67;8.88;;;13.40;79.10;;;;;;7393047;19;20441;-81
2023/04/16 10:19:01;;;;;;;19.67;8.68;;;13.10;79.40;;;;;;7388581;19;20031;-79
2023/04/16 10:21:33;;;;;;;14.73;8.05;;;12.90;80.20;;;;;;7393829;19;20003;-82
2023/04/16 10:24:15;;;;;;;19.10;8.95;;;13.10;79.90;;;;;;7389529;19;20014;-81
2023/04/16 10:26:56;;;;;;;17.98;8.35;;;13.20;79.70;;;;;;7386561;19;20143;-81
2023/04/16 10:29:26;;;;;;;21.83;8.90;;;13.30;80.00;;;;;;7386712;19;20010;-79
2023/04/16 10:31:56;;;;;;;15.98;7.70;;;13.40;80.00;;;;;;7388911;19;20018;-78
2023/04/16 10:34:25;;;;;;;17.23;8.07;;;13.50;78.30;;;;;;7405248;19;20026;-79
2023/04/16 10:40:24;;;;;;;15.80;7.57;;;13.70;77.20;;;;;;7366177;19;20092;-78
2023/04/16 10:42:58;;;;;;;20.25;7.13;;;13.80;79.20;;;;;;7414662;19;20007;-80
2023/04/16 10:45:36;;;;;;;14.45;6.75;;;14.00;78.70;;;;;;7389089;19;20009;-79
2023/04/16 10:48:17;;;;;;;15.65;6.50;;;14.10;77.70;;;;;;7389811;19;20018;-78
2023/04/16 10:51:00;;;;;;;;;;;14.10;76.70;;;;;;7389824;19;20035;-78
2023/04/16 10:54:16;;;;;;;20.30;6.88;;;14.30;75.70;;;;;;7387887;19;19907;-80
2023/04/16 11:06:18;;;;;;;13.27;6.18;;;14.50;76.50;;;;;;7385163;19;20025;-80
2023/04/16 11:08:49;;;;;;;16.88;6.47;;;14.70;74.70;;;;;;7384544;19;20020;-76
2023/04/16 11:11:19;;;;;;;20.58;6.63;;;14.60;73.30;;;;;;7382675;19;20006;-79
2023/04/16 11:13:56;;;;;;;15.32;6.65;;;14.60;73.60;;;;;;7408480;19;20010;-78
2023/04/16 11:16:27;;;;;;;12.10;6.35;;;14.40;74.50;;;;;;7387614;19;20047;-77
2023/04/16 11:18:56;;;;;;;15.77;6.00;;;14.50;73.20;;;;;;7389373;19;20010;-77
2023/04/16 11:21:26;;;;;;;21.23;8.10;;;14.50;73.10;;;;;;7386612;19;20358;-77
2023/04/16 11:23:55;;;;;;;17.75;6.45;;;14.60;74.30;;;;;;7381091;19;20019;-77
2023/04/16 11:26:31;;;;;;;14.10;6.32;;;14.60;72.80;;;;;;7382699;19;20002;-79
2023/04/16 11:29:03;;;;;;;12.93;5.93;;;14.50;72.70;;;;;;7380012;19;20006;-80
2023/04/16 11:31:32;;;;;;;15.10;6.30;;;14.50;72.60;;;;;;7403642;19;20002;-79
2023/04/16 11:34:02;;;;;;;11.57;5.78;;;14.50;72.70;;;;;;7384473;19;20273;-79
2023/04/16 11:36:44;;;;;;;14.07;6.53;;;14.60;73.10;;;;;;7386727;19;20006;-79
2023/04/16 11:39:13;;;;;;;11.90;6.22;;;14.60;71.50;;;;;;7387725;19;20401;-78
2023/04/16 11:41:45;;;;;;;11.60;5.88;;;14.60;72.80;;;;;;7383666;19;20002;-78
2023/04/16 11:44:23;;;;;;;;;;;14.50;72.00;;;;;;7387026;19;20083;-78
2023/04/16 11:46:56;;;;;;;11.50;4.95;;;14.60;72.40;;;;;;7406161;19;20013;-80
2023/04/16 11:49:31;;;;;;;12.38;5.05;;;14.70;72.50;;;;;;7392409;19;20003;-79
2023/04/16 11:52:00;;;;;;;12.55;5.75;;;14.80;70.50;;;;;;7387047;19;20002;-78
2023/04/16 11:54:33;;;;;;;13.95;5.05;;;14.80;71.10;;;;;;7385627;19;20010;-79
2023/04/16 11:57:13;;;;;;;19.27;5.55;;;15.00;71.60;;;;;;7386856;19;20003;-83
2023/04/16 11:59:48;;;;;;;14.82;5.50;;;15.10;71.10;;;;;;7385583;19;20469;-77
2023/04/16 12:02:17;;;;;;;13.80;5.35;;;15.10;69.50;;;;;;7386764;19;20023;-80
2023/04/16 12:04:46;;;;;;;11.57;5.05;;;15.10;69.00;;;;;;7407657;19;20030;-76
2023/04/16 12:07:15;;;;;;;10.55;4.78;;;15.10;68.50;;;;;;7381667;19;20015;-76
2023/04/16 12:09:45;;;;;;;10.98;4.43;;;15.10;68.20;;;;;;7381860;19;20007;-77
2023/04/16 12:15:48;;;;;;;10.07;4.75;;;15.10;69.50;;;;;;7387391;19;20317;-82
2023/04/16 12:18:18;;;;;;;14.18;5.03;;;15.30;71.40;;;;;;7386120;19;20055;-78
2023/04/16 12:20:47;;;;;;;10.68;4.82;;;15.30;70.80;;;;;;7387432;19;20014;-79
2023/04/16 12:23:25;;;;;;;15.68;4.55;;;15.60;70.90;;;;;;7383403;19;20032;-80
2023/04/16 12:26:01;;;;;;;9.13;4.85;;;15.80;70.30;;;;;;7404150;19;20007;-83
2023/04/16 12:28:33;;;;;;;11.07;4.13;;;16.10;69.70;;;;;;7383367;19;20382;-78
2023/04/16 12:31:05;;;;;;;7.78;3.58;;;16.20;65.50;;;;;;7380406;19;20070;-79
2023/04/16 12:33:34;;;;;;;7.57;3.22;;;16.00;65.30;;;;;;7380080;19;20020;-79
2023/04/16 12:36:03;;;;;;;9.13;3.45;;;16.10;65.50;;;;;;7378476;19;20007;-79
2023/04/16 12:38:32;;;;;;;6.18;3.30;;;16.20;65.20;;;;;;7378079;19;20003;-77
2023/04/16 12:44:56;;;;;;;9.00;3.00;;;15.90;63.70;;;;;;7276367;19;2004403;-78
2023/04/16 12:47:30;;;;;;;10.25;4.28;;;16.00;65.30;;;;;;7376304;19;20051;-80
2023/04/16 12:49:59;;;;;;;6.25;3.05;;;16.10;65.20;;;;;;7378112;19;20108;-78
2023/04/16 12:52:29;;;;;;;5.45;2.90;;;16.20;64.50;;;;;;7403332;19;20034;-80
2023/04/16 12:58:18;;;;;;;7.00;2.95;;;16.30;64.00;;;;;;7400988;19;20062;-79
2023/04/16 13:04:00;;;;;;;6.73;2.97;;;16.50;62.60;;;;;;7410585;19;19998;-79
2023/04/16 13:06:28;;;;;;;;;;;16.60;62.60;;;;;;7386185;19;20226;-79
2023/04/16 13:09:05;;;;;;;9.77;3.05;;;16.60;61.80;;;;;;7386146;19;19931;-82
2023/04/16 13:34:25;;;;;;;7.23;3.13;;;16.70;61.40;;;;;;7406189;19;20215;-79
2023/04/16 13:36:55;;;;;;;5.05;2.80;;;16.80;61.10;;;;;;7386931;19;20042;-80
2023/04/16 14:21:25;;;;;;;5.78;2.20;;;17.60;59.30;;;;;;7356189;19;20007;-84
2023/04/16 14:27:12;;;;;;;7.67;2.73;;;17.20;59.70;;;;;;7383494;19;20524;-80
2023/04/16 14:29:52;;;;;;;4.35;2.22;;;17.30;60.20;;;;;;7380477;19;20002;-81
2023/04/16 14:32:21;;;;;;;7.10;2.90;;;17.40;59.90;;;;;;7381893;19;20002;-80
2023/04/16 14:38:04;;;;;;;4.50;2.50;;;17.70;60.50;;;;;;7335000;19;19991;-78